sensor_id;sensor_type;location;lat;lon;timestamp;P1;durP1;ratioP1;P2;durP2;ratioP2
8407;SDS011;4241;48.452;9.216;2023-06-10T00:01:18;468.27;;;202.07;;
8407;SDS011;4241;48.452;9.216;2023-06-10T00:03:45;471.00;;;203.93;;
8407;SDS011;4241;48.452;9.216;2023-06-10T00:06:12;470.87;;;202.83;;
8407;SDS011;4241;48.452;9.216;2023-06-10T00:08:39;468.87;;;200.23;;
8407;SDS011;4241;48.452;9.216;2023-06-10T00:11:08;468.87;;;198.63;;
8407;SDS011;4241;48.452;9.216;2023-06-10T00:13:36;469.33;;;201.30;;
8407;SDS011;4241;48.452;9.216;2023-06-10T00:16:03;469.13;;;198.70;;
8407;SDS011;4241;48.452;9.216;2023-06-10T00:18:30;467.37;;;196.60;;
8407;SDS011;4241;48.452;9.216;2023-06-10T00:20:57;467.33;;;194.13;;
8407;SDS011;4241;48.452;9.216;2023-06-10T00:23:29;468.63;;;197.03;;
8407;SDS011;4241;48.452;9.216;2023-06-10T00:25:57;467.80;;;195.27;;
8407;SDS011;4241;48.452;9.216;2023-06-10T00:28:26;472.77;;;201.30;;
8407;SDS011;4241;48.452;9.216;2023-06-10T00:30:53;469.97;;;196.77;;
8407;SDS011;4241;48.452;9.216;2023-06-10T00:33:21;465.90;;;192.63;;
8407;SDS011;4241;48.452;9.216;2023-06-10T00:35:48;467.27;;;193.80;;
8407;SDS011;4241;48.452;9.216;2023-06-10T00:38:15;467.23;;;192.40;;
8407;SDS011;4241;48.452;9.216;2023-06-10T00:40:42;470.10;;;196.70;;
8407;SDS011;4241;48.452;9.216;2023-06-10T00:43:09;470.20;;;197.57;;
8407;SDS011;4241;48.452;9.216;2023-06-10T00:45:38;471.87;;;201.57;;
8407;SDS011;4241;48.452;9.216;2023-06-10T00:48:05;467.57;;;195.27;;
8407;SDS011;4241;48.452;9.216;2023-06-10T00:50:33;469.87;;;197.70;;
8407;SDS011;4241;48.452;9.216;2023-06-10T00:53:03;472.63;;;200.67;;
8407;SDS011;4241;48.452;9.216;2023-06-10T00:55:30;475.57;;;204.23;;
8407;SDS011;4241;48.452;9.216;2023-06-10T00:57:58;468.27;;;195.03;;
8407;SDS011;4241;48.452;9.216;2023-06-10T01:00:26;468.13;;;195.03;;
8407;SDS011;4241;48.452;9.216;2023-06-10T01:02:55;466.83;;;191.13;;
8407;SDS011;4241;48.452;9.216;2023-06-10T01:05:23;469.43;;;192.50;;
8407;SDS011;4241;48.452;9.216;2023-06-10T01:07:53;464.63;;;183.93;;
8407;SDS011;4241;48.452;9.216;2023-06-10T01:10:24;466.87;;;191.10;;
8407;SDS011;4241;48.452;9.216;2023-06-10T01:12:55;465.40;;;187.23;;
8407;SDS011;4241;48.452;9.216;2023-06-10T01:15:27;469.90;;;191.93;;
8407;SDS011;4241;48.452;9.216;2023-06-10T01:17:57;465.83;;;190.90;;
8407;SDS011;4241;48.452;9.216;2023-06-10T01:20:24;465.90;;;187.70;;
8407;SDS011;4241;48.452;9.216;2023-06-10T01:22:54;467.40;;;189.37;;
8407;SDS011;4241;48.452;9.216;2023-06-10T01:25:23;471.60;;;194.33;;
8407;SDS011;4241;48.452;9.216;2023-06-10T01:27:53;464.17;;;184.70;;
8407;SDS011;4241;48.452;9.216;2023-06-10T01:30:22;466.47;;;184.93;;
8407;SDS011;4241;48.452;9.216;2023-06-10T01:32:50;464.37;;;183.53;;
8407;SDS011;4241;48.452;9.216;2023-06-10T01:35:18;464.77;;;183.37;;
8407;SDS011;4241;48.452;9.216;2023-06-10T01:37:47;463.80;;;182.33;;
8407;SDS011;4241;48.452;9.216;2023-06-10T01:40:16;464.30;;;183.13;;
8407;SDS011;4241;48.452;9.216;2023-06-10T01:42:43;463.67;;;180.50;;
8407;SDS011;4241;48.452;9.216;2023-06-10T01:45:10;463.80;;;183.23;;
8407;SDS011;4241;48.452;9.216;2023-06-10T01:47:38;465.30;;;183.10;;
8407;SDS011;4241;48.452;9.216;2023-06-10T01:50:05;464.73;;;183.57;;
8407;SDS011;4241;48.452;9.216;2023-06-10T01:52:33;462.07;;;179.60;;
8407;SDS011;4241;48.452;9.216;2023-06-10T01:55:00;463.97;;;183.70;;
8407;SDS011;4241;48.452;9.216;2023-06-10T01:57:29;463.60;;;181.83;;
8407;SDS011;4241;48.452;9.216;2023-06-10T01:59:56;462.77;;;178.53;;
8407;SDS011;4241;48.452;9.216;2023-06-10T02:02:23;465.33;;;182.30;;
8407;SDS011;4241;48.452;9.216;2023-06-10T02:04:50;463.70;;;180.07;;
8407;SDS011;4241;48.452;9.216;2023-06-10T02:07:17;463.47;;;179.87;;
8407;SDS011;4241;48.452;9.216;2023-06-10T02:09:44;462.33;;;179.00;;
8407;SDS011;4241;48.452;9.216;2023-06-10T02:12:11;462.87;;;179.03;;
8407;SDS011;4241;48.452;9.216;2023-06-10T02:14:40;463.00;;;179.90;;
8407;SDS011;4241;48.452;9.216;2023-06-10T02:17:07;463.40;;;180.07;;
8407;SDS011;4241;48.452;9.216;2023-06-10T02:19:37;463.47;;;180.70;;
8407;SDS011;4241;48.452;9.216;2023-06-10T02:22:07;461.60;;;176.27;;
8407;SDS011;4241;48.452;9.216;2023-06-10T02:24:35;462.87;;;178.53;;
8407;SDS011;4241;48.452;9.216;2023-06-10T02:27:03;464.00;;;178.93;;
8407;SDS011;4241;48.452;9.216;2023-06-10T02:29:31;461.83;;;176.07;;
8407;SDS011;4241;48.452;9.216;2023-06-10T02:32:00;459.73;;;174.07;;
8407;SDS011;4241;48.452;9.216;2023-06-10T02:34:27;463.77;;;179.23;;
8407;SDS011;4241;48.452;9.216;2023-06-10T02:36:54;462.20;;;175.20;;
8407;SDS011;4241;48.452;9.216;2023-06-10T02:39:22;461.87;;;174.80;;
8407;SDS011;4241;48.452;9.216;2023-06-10T02:41:49;461.97;;;175.37;;
8407;SDS011;4241;48.452;9.216;2023-06-10T02:44:17;462.33;;;175.87;;
8407;SDS011;4241;48.452;9.216;2023-06-10T02:46:44;462.17;;;175.33;;
8407;SDS011;4241;48.452;9.216;2023-06-10T02:49:13;459.87;;;170.27;;
8407;SDS011;4241;48.452;9.216;2023-06-10T02:51:40;460.40;;;173.43;;
8407;SDS011;4241;48.452;9.216;2023-06-10T02:54:07;460.20;;;172.27;;
8407;SDS011;4241;48.452;9.216;2023-06-10T02:56:34;459.47;;;170.50;;
8407;SDS011;4241;48.452;9.216;2023-06-10T02:59:02;459.80;;;172.17;;
8407;SDS011;4241;48.452;9.216;2023-06-10T03:01:32;460.53;;;170.77;;
8407;SDS011;4241;48.452;9.216;2023-06-10T03:04:02;460.83;;;172.20;;
8407;SDS011;4241;48.452;9.216;2023-06-10T03:06:30;458.93;;;167.20;;
8407;SDS011;4241;48.452;9.216;2023-06-10T03:08:59;458.80;;;169.17;;
8407;SDS011;4241;48.452;9.216;2023-06-10T03:11:26;459.17;;;170.20;;
8407;SDS011;4241;48.452;9.216;2023-06-10T03:13:53;459.67;;;168.60;;
8407;SDS011;4241;48.452;9.216;2023-06-10T03:16:20;459.00;;;169.40;;
8407;SDS011;4241;48.452;9.216;2023-06-10T03:18:48;459.30;;;169.87;;
8407;SDS011;4241;48.452;9.216;2023-06-10T03:21:15;457.57;;;163.07;;
8407;SDS011;4241;48.452;9.216;2023-06-10T03:23:44;459.60;;;168.40;;
8407;SDS011;4241;48.452;9.216;2023-06-10T03:26:11;458.10;;;164.97;;
8407;SDS011;4241;48.452;9.216;2023-06-10T03:28:40;461.30;;;170.70;;
8407;SDS011;4241;48.452;9.216;2023-06-10T03:31:07;459.33;;;169.40;;
8407;SDS011;4241;48.452;9.216;2023-06-10T03:33:35;459.97;;;170.63;;
8407;SDS011;4241;48.452;9.216;2023-06-10T03:36:02;457.87;;;166.33;;
8407;SDS011;4241;48.452;9.216;2023-06-10T03:38:30;458.63;;;166.67;;
8407;SDS011;4241;48.452;9.216;2023-06-10T03:40:58;458.67;;;169.43;;
8407;SDS011;4241;48.452;9.216;2023-06-10T03:43:25;458.67;;;165.87;;
8407;SDS011;4241;48.452;9.216;2023-06-10T03:45:52;457.57;;;164.80;;
8407;SDS011;4241;48.452;9.216;2023-06-10T03:48:19;457.47;;;165.60;;
8407;SDS011;4241;48.452;9.216;2023-06-10T03:50:46;460.03;;;168.47;;
8407;SDS011;4241;48.452;9.216;2023-06-10T03:53:15;458.43;;;167.00;;
8407;SDS011;4241;48.452;9.216;2023-06-10T03:55:43;456.53;;;165.43;;
8407;SDS011;4241;48.452;9.216;2023-06-10T03:58:12;458.40;;;166.30;;
8407;SDS011;4241;48.452;9.216;2023-06-10T04:00:40;458.03;;;167.20;;
8407;SDS011;4241;48.452;9.216;2023-06-10T04:03:07;458.33;;;166.07;;
8407;SDS011;4241;48.452;9.216;2023-06-10T04:05:39;464.43;;;173.20;;
8407;SDS011;4241;48.452;9.216;2023-06-10T04:08:07;456.63;;;162.30;;
8407;SDS011;4241;48.452;9.216;2023-06-10T04:10:34;457.10;;;164.50;;
8407;SDS011;4241;48.452;9.216;2023-06-10T04:13:01;457.97;;;165.83;;
8407;SDS011;4241;48.452;9.216;2023-06-10T04:15:30;467.37;;;176.17;;
8407;SDS011;4241;48.452;9.216;2023-06-10T04:17:58;457.80;;;166.33;;
8407;SDS011;4241;48.452;9.216;2023-06-10T04:20:26;458.27;;;166.23;;
8407;SDS011;4241;48.452;9.216;2023-06-10T04:22:53;456.03;;;161.77;;
8407;SDS011;4241;48.452;9.216;2023-06-10T04:25:20;461.57;;;170.67;;
8407;SDS011;4241;48.452;9.216;2023-06-10T04:27:49;458.17;;;167.17;;
8407;SDS011;4241;48.452;9.216;2023-06-10T04:30:16;457.93;;;165.53;;
8407;SDS011;4241;48.452;9.216;2023-06-10T04:32:45;455.67;;;164.03;;
8407;SDS011;4241;48.452;9.216;2023-06-10T04:35:13;458.47;;;167.77;;
8407;SDS011;4241;48.452;9.216;2023-06-10T04:37:40;458.27;;;168.13;;
8407;SDS011;4241;48.452;9.216;2023-06-10T04:40:08;460.33;;;172.67;;
8407;SDS011;4241;48.452;9.216;2023-06-10T04:42:35;458.40;;;167.10;;
8407;SDS011;4241;48.452;9.216;2023-06-10T04:45:03;459.97;;;168.57;;
8407;SDS011;4241;48.452;9.216;2023-06-10T04:47:30;460.60;;;171.87;;
8407;SDS011;4241;48.452;9.216;2023-06-10T04:49:59;461.77;;;170.93;;
8407;SDS011;4241;48.452;9.216;2023-06-10T04:52:26;456.73;;;167.00;;
8407;SDS011;4241;48.452;9.216;2023-06-10T04:54:53;458.23;;;169.00;;
8407;SDS011;4241;48.452;9.216;2023-06-10T04:57:20;458.77;;;168.50;;
8407;SDS011;4241;48.452;9.216;2023-06-10T04:59:48;459.33;;;169.73;;
8407;SDS011;4241;48.452;9.216;2023-06-10T05:02:15;458.50;;;167.77;;
8407;SDS011;4241;48.452;9.216;2023-06-10T05:04:42;458.27;;;169.60;;
8407;SDS011;4241;48.452;9.216;2023-06-10T05:07:12;458.63;;;169.33;;
8407;SDS011;4241;48.452;9.216;2023-06-10T05:09:39;456.80;;;166.53;;
8407;SDS011;4241;48.452;9.216;2023-06-10T05:12:06;461.47;;;175.43;;
8407;SDS011;4241;48.452;9.216;2023-06-10T05:14:33;458.33;;;167.77;;
8407;SDS011;4241;48.452;9.216;2023-06-10T05:17:01;459.20;;;171.17;;
8407;SDS011;4241;48.452;9.216;2023-06-10T05:19:28;457.03;;;166.50;;
8407;SDS011;4241;48.452;9.216;2023-06-10T05:21:55;457.57;;;166.90;;
8407;SDS011;4241;48.452;9.216;2023-06-10T05:24:23;458.07;;;167.67;;
8407;SDS011;4241;48.452;9.216;2023-06-10T05:26:50;458.77;;;169.60;;
8407;SDS011;4241;48.452;9.216;2023-06-10T05:29:17;458.60;;;168.63;;
8407;SDS011;4241;48.452;9.216;2023-06-10T05:31:44;461.07;;;171.27;;
8407;SDS011;4241;48.452;9.216;2023-06-10T05:34:12;459.07;;;172.10;;
8407;SDS011;4241;48.452;9.216;2023-06-10T05:36:39;459.20;;;169.90;;
8407;SDS011;4241;48.452;9.216;2023-06-10T05:39:06;459.97;;;171.07;;
8407;SDS011;4241;48.452;9.216;2023-06-10T05:41:35;461.03;;;174.00;;
8407;SDS011;4241;48.452;9.216;2023-06-10T05:44:03;460.50;;;175.00;;
8407;SDS011;4241;48.452;9.216;2023-06-10T05:46:30;461.67;;;176.80;;
8407;SDS011;4241;48.452;9.216;2023-06-10T05:48:57;466.03;;;182.30;;
8407;SDS011;4241;48.452;9.216;2023-06-10T05:51:24;461.47;;;178.67;;
8407;SDS011;4241;48.452;9.216;2023-06-10T05:53:52;462.50;;;180.70;;
8407;SDS011;4241;48.452;9.216;2023-06-10T05:56:19;465.73;;;183.20;;
8407;SDS011;4241;48.452;9.216;2023-06-10T05:58:48;465.03;;;183.30;;
8407;SDS011;4241;48.452;9.216;2023-06-10T06:01:15;464.10;;;185.77;;
8407;SDS011;4241;48.452;9.216;2023-06-10T06:03:43;464.40;;;183.27;;
8407;SDS011;4241;48.452;9.216;2023-06-10T06:06:10;464.73;;;187.27;;
8407;SDS011;4241;48.452;9.216;2023-06-10T06:08:37;466.23;;;186.43;;
8407;SDS011;4241;48.452;9.216;2023-06-10T06:11:04;464.17;;;184.00;;
8407;SDS011;4241;48.452;9.216;2023-06-10T06:13:31;466.47;;;189.20;;
8407;SDS011;4241;48.452;9.216;2023-06-10T06:16:00;467.17;;;193.60;;
8407;SDS011;4241;48.452;9.216;2023-06-10T06:18:27;468.63;;;196.93;;
8407;SDS011;4241;48.452;9.216;2023-06-10T06:20:54;471.10;;;199.90;;
8407;SDS011;4241;48.452;9.216;2023-06-10T06:23:21;468.33;;;196.33;;
8407;SDS011;4241;48.452;9.216;2023-06-10T06:25:48;472.83;;;206.87;;
8407;SDS011;4241;48.452;9.216;2023-06-10T06:28:15;469.57;;;200.90;;
8407;SDS011;4241;48.452;9.216;2023-06-10T06:30:44;472.67;;;208.00;;
8407;SDS011;4241;48.452;9.216;2023-06-10T06:33:12;471.33;;;206.90;;
8407;SDS011;4241;48.452;9.216;2023-06-10T06:35:39;475.83;;;211.07;;
8407;SDS011;4241;48.452;9.216;2023-06-10T06:38:06;471.30;;;206.97;;
8407;SDS011;4241;48.452;9.216;2023-06-10T06:40:33;476.80;;;214.50;;
8407;SDS011;4241;48.452;9.216;2023-06-10T06:43:00;473.30;;;213.47;;
8407;SDS011;4241;48.452;9.216;2023-06-10T06:45:28;480.47;;;223.87;;
8407;SDS011;4241;48.452;9.216;2023-06-10T06:47:55;477.90;;;224.27;;
8407;SDS011;4241;48.452;9.216;2023-06-10T06:50:23;475.43;;;222.70;;
8407;SDS011;4241;48.452;9.216;2023-06-10T06:52:50;475.87;;;222.00;;
8407;SDS011;4241;48.452;9.216;2023-06-10T06:55:17;477.33;;;227.40;;
8407;SDS011;4241;48.452;9.216;2023-06-10T06:57:44;476.53;;;227.60;;
8407;SDS011;4241;48.452;9.216;2023-06-10T07:00:12;478.40;;;231.10;;
8407;SDS011;4241;48.452;9.216;2023-06-10T07:02:39;479.97;;;236.50;;
8407;SDS011;4241;48.452;9.216;2023-06-10T07:05:06;479.40;;;235.93;;
8407;SDS011;4241;48.452;9.216;2023-06-10T07:07:35;478.50;;;236.80;;
8407;SDS011;4241;48.452;9.216;2023-06-10T07:10:02;479.00;;;238.90;;
8407;SDS011;4241;48.452;9.216;2023-06-10T07:12:29;480.60;;;243.43;;
8407;SDS011;4241;48.452;9.216;2023-06-10T07:14:58;482.10;;;247.07;;
8407;SDS011;4241;48.452;9.216;2023-06-10T07:17:25;483.40;;;251.77;;
8407;SDS011;4241;48.452;9.216;2023-06-10T07:19:53;482.17;;;251.93;;
8407;SDS011;4241;48.452;9.216;2023-06-10T07:22:22;483.13;;;254.33;;
8407;SDS011;4241;48.452;9.216;2023-06-10T07:24:50;487.27;;;257.13;;
8407;SDS011;4241;48.452;9.216;2023-06-10T07:27:19;483.57;;;257.53;;
8407;SDS011;4241;48.452;9.216;2023-06-10T07:29:46;489.07;;;265.57;;
8407;SDS011;4241;48.452;9.216;2023-06-10T07:32:13;486.23;;;263.40;;
8407;SDS011;4241;48.452;9.216;2023-06-10T07:34:40;485.43;;;264.10;;
8407;SDS011;4241;48.452;9.216;2023-06-10T07:37:07;485.90;;;265.90;;
8407;SDS011;4241;48.452;9.216;2023-06-10T07:39:33;489.13;;;270.83;;
8407;SDS011;4241;48.452;9.216;2023-06-10T07:42:02;488.13;;;270.90;;
8407;SDS011;4241;48.452;9.216;2023-06-10T07:44:29;488.47;;;274.10;;
8407;SDS011;4241;48.452;9.216;2023-06-10T07:46:55;494.97;;;280.93;;
8407;SDS011;4241;48.452;9.216;2023-06-10T07:49:23;489.43;;;276.93;;
8407;SDS011;4241;48.452;9.216;2023-06-10T07:51:50;491.40;;;279.33;;
8407;SDS011;4241;48.452;9.216;2023-06-10T07:54:17;489.47;;;278.87;;
8407;SDS011;4241;48.452;9.216;2023-06-10T07:56:43;493.63;;;283.57;;
8407;SDS011;4241;48.452;9.216;2023-06-10T07:59:13;491.23;;;283.27;;
8407;SDS011;4241;48.452;9.216;2023-06-10T08:01:40;489.53;;;281.03;;
8407;SDS011;4241;48.452;9.216;2023-06-10T08:04:08;490.07;;;283.63;;
8407;SDS011;4241;48.452;9.216;2023-06-10T08:06:35;490.47;;;286.47;;
8407;SDS011;4241;48.452;9.216;2023-06-10T08:09:02;488.80;;;281.90;;
8407;SDS011;4241;48.452;9.216;2023-06-10T08:11:29;488.40;;;282.87;;
8407;SDS011;4241;48.452;9.216;2023-06-10T08:13:56;489.83;;;285.70;;
8407;SDS011;4241;48.452;9.216;2023-06-10T08:16:24;488.20;;;284.97;;
8407;SDS011;4241;48.452;9.216;2023-06-10T08:18:51;489.07;;;282.60;;
8407;SDS011;4241;48.452;9.216;2023-06-10T08:21:18;489.13;;;284.67;;
8407;SDS011;4241;48.452;9.216;2023-06-10T08:23:45;489.00;;;284.77;;
8407;SDS011;4241;48.452;9.216;2023-06-10T08:26:12;490.10;;;289.33;;
8407;SDS011;4241;48.452;9.216;2023-06-10T08:28:39;493.87;;;298.13;;
8407;SDS011;4241;48.452;9.216;2023-06-10T08:31:06;492.17;;;298.37;;
8407;SDS011;4241;48.452;9.216;2023-06-10T08:33:34;493.00;;;302.80;;
8407;SDS011;4241;48.452;9.216;2023-06-10T08:36:01;494.57;;;306.63;;
8407;SDS011;4241;48.452;9.216;2023-06-10T08:38:28;498.13;;;314.17;;
8407;SDS011;4241;48.452;9.216;2023-06-10T08:40:56;495.50;;;316.70;;
8407;SDS011;4241;48.452;9.216;2023-06-10T08:43:28;495.47;;;318.93;;
8407;SDS011;4241;48.452;9.216;2023-06-10T08:46:00;498.03;;;318.10;;
8407;SDS011;4241;48.452;9.216;2023-06-10T08:48:28;493.83;;;312.17;;
8407;SDS011;4241;48.452;9.216;2023-06-10T08:50:57;496.23;;;317.40;;
8407;SDS011;4241;48.452;9.216;2023-06-10T08:53:25;481.93;;;309.20;;
8407;SDS011;4241;48.452;9.216;2023-06-10T08:55:53;494.57;;;312.50;;
8407;SDS011;4241;48.452;9.216;2023-06-10T08:58:20;493.33;;;313.13;;
8407;SDS011;4241;48.452;9.216;2023-06-10T09:00:47;495.33;;;314.50;;
8407;SDS011;4241;48.452;9.216;2023-06-10T09:03:14;494.17;;;311.07;;
8407;SDS011;4241;48.452;9.216;2023-06-10T09:05:42;494.33;;;314.87;;
8407;SDS011;4241;48.452;9.216;2023-06-10T09:08:11;495.90;;;317.53;;
8407;SDS011;4241;48.452;9.216;2023-06-10T09:10:38;496.27;;;315.33;;
8407;SDS011;4241;48.452;9.216;2023-06-10T09:13:06;493.97;;;313.10;;
8407;SDS011;4241;48.452;9.216;2023-06-10T09:15:33;500.03;;;321.67;;
8407;SDS011;4241;48.452;9.216;2023-06-10T09:18:00;494.57;;;315.03;;
8407;SDS011;4241;48.452;9.216;2023-06-10T09:20:27;493.97;;;312.93;;
8407;SDS011;4241;48.452;9.216;2023-06-10T09:22:53;494.67;;;317.97;;
8407;SDS011;4241;48.452;9.216;2023-06-10T09:25:28;502.90;;;335.93;;
8407;SDS011;4241;48.452;9.216;2023-06-10T09:28:01;496.93;;;330.33;;
8407;SDS011;4241;48.452;9.216;2023-06-10T09:30:29;499.30;;;333.23;;
8407;SDS011;4241;48.452;9.216;2023-06-10T09:32:58;498.47;;;338.40;;
8407;SDS011;4241;48.452;9.216;2023-06-10T09:35:26;504.07;;;346.83;;
8407;SDS011;4241;48.452;9.216;2023-06-10T09:37:54;497.47;;;340.10;;
8407;SDS011;4241;48.452;9.216;2023-06-10T09:40:23;500.23;;;346.47;;
8407;SDS011;4241;48.452;9.216;2023-06-10T09:42:52;499.67;;;347.87;;
8407;SDS011;4241;48.452;9.216;2023-06-10T09:45:20;504.30;;;356.97;;
8407;SDS011;4241;48.452;9.216;2023-06-10T09:47:47;505.80;;;361.23;;
8407;SDS011;4241;48.452;9.216;2023-06-10T09:50:17;504.53;;;363.10;;
8407;SDS011;4241;48.452;9.216;2023-06-10T09:52:44;502.83;;;361.87;;
8407;SDS011;4241;48.452;9.216;2023-06-10T09:55:12;506.53;;;364.40;;
8407;SDS011;4241;48.452;9.216;2023-06-10T09:57:40;503.37;;;364.57;;
8407;SDS011;4241;48.452;9.216;2023-06-10T10:00:10;503.60;;;367.77;;
8407;SDS011;4241;48.452;9.216;2023-06-10T10:02:43;505.10;;;370.27;;
8407;SDS011;4241;48.452;9.216;2023-06-10T10:05:12;501.87;;;364.20;;
8407;SDS011;4241;48.452;9.216;2023-06-10T10:07:40;500.73;;;357.67;;
8407;SDS011;4241;48.452;9.216;2023-06-10T10:10:07;503.33;;;359.60;;
8407;SDS011;4241;48.452;9.216;2023-06-10T10:12:36;500.10;;;351.80;;
8407;SDS011;4241;48.452;9.216;2023-06-10T10:15:06;499.40;;;350.27;;
8407;SDS011;4241;48.452;9.216;2023-06-10T10:17:34;500.50;;;351.07;;
8407;SDS011;4241;48.452;9.216;2023-06-10T10:20:04;499.60;;;353.77;;
8407;SDS011;4241;48.452;9.216;2023-06-10T10:22:34;502.07;;;361.07;;
8407;SDS011;4241;48.452;9.216;2023-06-10T10:25:05;501.30;;;359.67;;
8407;SDS011;4241;48.452;9.216;2023-06-10T10:27:44;501.57;;;360.20;;
8407;SDS011;4241;48.452;9.216;2023-06-10T10:30:16;501.93;;;362.43;;
8407;SDS011;4241;48.452;9.216;2023-06-10T10:32:52;503.10;;;368.07;;
8407;SDS011;4241;48.452;9.216;2023-06-10T10:35:23;507.50;;;375.00;;
8407;SDS011;4241;48.452;9.216;2023-06-10T10:37:51;502.27;;;369.00;;
8407;SDS011;4241;48.452;9.216;2023-06-10T10:40:19;503.03;;;371.93;;
8407;SDS011;4241;48.452;9.216;2023-06-10T10:42:46;502.47;;;364.13;;
8407;SDS011;4241;48.452;9.216;2023-06-10T10:45:16;501.03;;;355.57;;
8407;SDS011;4241;48.452;9.216;2023-06-10T10:47:44;503.67;;;355.50;;
8407;SDS011;4241;48.452;9.216;2023-06-10T10:50:15;501.53;;;356.27;;
8407;SDS011;4241;48.452;9.216;2023-06-10T10:52:48;505.27;;;361.93;;
8407;SDS011;4241;48.452;9.216;2023-06-10T10:55:19;503.30;;;356.93;;
8407;SDS011;4241;48.452;9.216;2023-06-10T10:57:53;500.60;;;349.13;;
8407;SDS011;4241;48.452;9.216;2023-06-10T11:00:28;500.33;;;341.10;;
8407;SDS011;4241;48.452;9.216;2023-06-10T11:03:00;500.60;;;343.17;;
8407;SDS011;4241;48.452;9.216;2023-06-10T11:05:35;498.10;;;339.57;;
8407;SDS011;4241;48.452;9.216;2023-06-10T11:08:04;499.10;;;341.10;;
8407;SDS011;4241;48.452;9.216;2023-06-10T11:10:35;501.93;;;340.10;;
8407;SDS011;4241;48.452;9.216;2023-06-10T11:13:07;498.03;;;334.27;;
8407;SDS011;4241;48.452;9.216;2023-06-10T11:15:39;502.67;;;340.17;;
8407;SDS011;4241;48.452;9.216;2023-06-10T11:18:12;498.10;;;333.13;;
8407;SDS011;4241;48.452;9.216;2023-06-10T11:20:44;496.00;;;329.27;;
8407;SDS011;4241;48.452;9.216;2023-06-10T11:23:24;496.77;;;326.07;;
8407;SDS011;4241;48.452;9.216;2023-06-10T11:26:00;495.63;;;328.37;;
8407;SDS011;4241;48.452;9.216;2023-06-10T11:28:36;497.77;;;331.77;;
8407;SDS011;4241;48.452;9.216;2023-06-10T11:31:04;495.93;;;332.47;;
8407;SDS011;4241;48.452;9.216;2023-06-10T11:33:31;497.83;;;331.33;;
8407;SDS011;4241;48.452;9.216;2023-06-10T11:35:58;494.80;;;324.13;;
8407;SDS011;4241;48.452;9.216;2023-06-10T11:38:25;496.63;;;325.03;;
8407;SDS011;4241;48.452;9.216;2023-06-10T11:40:54;500.00;;;329.20;;
8407;SDS011;4241;48.452;9.216;2023-06-10T11:43:22;497.03;;;328.53;;
8407;SDS011;4241;48.452;9.216;2023-06-10T11:45:53;497.40;;;330.97;;
8407;SDS011;4241;48.452;9.216;2023-06-10T11:48:22;499.70;;;340.70;;
8407;SDS011;4241;48.452;9.216;2023-06-10T11:50:49;501.20;;;351.10;;
8407;SDS011;4241;48.452;9.216;2023-06-10T11:53:16;501.83;;;359.07;;
8407;SDS011;4241;48.452;9.216;2023-06-10T11:55:43;503.43;;;367.87;;
8407;SDS011;4241;48.452;9.216;2023-06-10T11:58:14;503.53;;;374.87;;
8407;SDS011;4241;48.452;9.216;2023-06-10T12:00:45;504.93;;;377.13;;
8407;SDS011;4241;48.452;9.216;2023-06-10T12:03:12;511.30;;;379.03;;
8407;SDS011;4241;48.452;9.216;2023-06-10T12:05:41;507.50;;;372.10;;
8407;SDS011;4241;48.452;9.216;2023-06-10T12:08:23;503.83;;;365.97;;
8407;SDS011;4241;48.452;9.216;2023-06-10T12:10:50;504.20;;;361.83;;
8407;SDS011;4241;48.452;9.216;2023-06-10T12:13:17;501.10;;;355.13;;
8407;SDS011;4241;48.452;9.216;2023-06-10T12:15:44;499.53;;;348.47;;
8407;SDS011;4241;48.452;9.216;2023-06-10T12:18:15;497.70;;;341.13;;
8407;SDS011;4241;48.452;9.216;2023-06-10T12:20:44;503.03;;;347.17;;
8407;SDS011;4241;48.452;9.216;2023-06-10T12:23:12;497.20;;;333.93;;
8407;SDS011;4241;48.452;9.216;2023-06-10T12:25:39;498.50;;;332.37;;
8407;SDS011;4241;48.452;9.216;2023-06-10T12:28:20;497.67;;;334.23;;
8407;SDS011;4241;48.452;9.216;2023-06-10T12:30:47;498.13;;;331.10;;
8407;SDS011;4241;48.452;9.216;2023-06-10T12:33:17;496.03;;;326.07;;
8407;SDS011;4241;48.452;9.216;2023-06-10T12:35:49;494.73;;;321.27;;
8407;SDS011;4241;48.452;9.216;2023-06-10T12:38:20;496.10;;;323.47;;
8407;SDS011;4241;48.452;9.216;2023-06-10T12:40:49;497.43;;;325.47;;
8407;SDS011;4241;48.452;9.216;2023-06-10T12:43:19;495.27;;;327.67;;
8407;SDS011;4241;48.452;9.216;2023-06-10T12:45:46;497.13;;;337.10;;
8407;SDS011;4241;48.452;9.216;2023-06-10T12:48:17;497.83;;;340.53;;
8407;SDS011;4241;48.452;9.216;2023-06-10T12:50:49;498.93;;;339.27;;
8407;SDS011;4241;48.452;9.216;2023-06-10T12:53:19;499.13;;;340.93;;
8407;SDS011;4241;48.452;9.216;2023-06-10T12:55:48;497.23;;;335.40;;
8407;SDS011;4241;48.452;9.216;2023-06-10T12:58:15;496.47;;;336.50;;
8407;SDS011;4241;48.452;9.216;2023-06-10T13:00:42;499.20;;;343.37;;
8407;SDS011;4241;48.452;9.216;2023-06-10T13:03:09;500.43;;;350.27;;
8407;SDS011;4241;48.452;9.216;2023-06-10T13:05:36;500.90;;;355.80;;
8407;SDS011;4241;48.452;9.216;2023-06-10T13:08:05;500.97;;;355.50;;
8407;SDS011;4241;48.452;9.216;2023-06-10T13:10:32;500.67;;;363.40;;
8407;SDS011;4241;48.452;9.216;2023-06-10T13:13:00;501.90;;;365.63;;
8407;SDS011;4241;48.452;9.216;2023-06-10T13:15:27;509.33;;;380.27;;
8407;SDS011;4241;48.452;9.216;2023-06-10T13:17:54;504.53;;;380.37;;
8407;SDS011;4241;48.452;9.216;2023-06-10T13:20:21;506.40;;;382.17;;
8407;SDS011;4241;48.452;9.216;2023-06-10T13:22:48;508.73;;;399.73;;
8407;SDS011;4241;48.452;9.216;2023-06-10T13:25:19;509.93;;;400.67;;
8407;SDS011;4241;48.452;9.216;2023-06-10T13:27:46;506.40;;;396.27;;
8407;SDS011;4241;48.452;9.216;2023-06-10T13:30:12;509.30;;;400.80;;
8407;SDS011;4241;48.452;9.216;2023-06-10T13:32:39;508.27;;;398.37;;
8407;SDS011;4241;48.452;9.216;2023-06-10T13:35:07;506.23;;;392.77;;
8407;SDS011;4241;48.452;9.216;2023-06-10T13:37:34;504.43;;;383.50;;
8407;SDS011;4241;48.452;9.216;2023-06-10T13:40:02;505.10;;;381.27;;
8407;SDS011;4241;48.452;9.216;2023-06-10T13:42:31;501.93;;;367.20;;
8407;SDS011;4241;48.452;9.216;2023-06-10T13:44:57;503.40;;;369.13;;
8407;SDS011;4241;48.452;9.216;2023-06-10T13:47:24;500.97;;;360.20;;
8407;SDS011;4241;48.452;9.216;2023-06-10T13:49:51;499.23;;;357.47;;
8407;SDS011;4241;48.452;9.216;2023-06-10T13:52:18;498.97;;;353.20;;
8407;SDS011;4241;48.452;9.216;2023-06-10T13:54:45;499.83;;;347.30;;
8407;SDS011;4241;48.452;9.216;2023-06-10T13:57:12;498.73;;;351.93;;
8407;SDS011;4241;48.452;9.216;2023-06-10T13:59:40;497.47;;;346.57;;
8407;SDS011;4241;48.452;9.216;2023-06-10T14:02:07;498.13;;;344.90;;
8407;SDS011;4241;48.452;9.216;2023-06-10T14:04:34;496.60;;;343.77;;
8407;SDS011;4241;48.452;9.216;2023-06-10T14:07:01;498.43;;;348.10;;
8407;SDS011;4241;48.452;9.216;2023-06-10T14:09:28;499.50;;;352.10;;
8407;SDS011;4241;48.452;9.216;2023-06-10T14:11:54;499.50;;;354.63;;
8407;SDS011;4241;48.452;9.216;2023-06-10T14:14:21;500.77;;;360.87;;
8407;SDS011;4241;48.452;9.216;2023-06-10T14:16:49;504.00;;;373.27;;
8407;SDS011;4241;48.452;9.216;2023-06-10T14:19:16;501.67;;;370.47;;
8407;SDS011;4241;48.452;9.216;2023-06-10T14:21:43;503.43;;;378.83;;
8407;SDS011;4241;48.452;9.216;2023-06-10T14:24:10;505.47;;;379.53;;
8407;SDS011;4241;48.452;9.216;2023-06-10T14:26:37;506.10;;;382.77;;